createdAt,value
2019-06-27T03:27:34.303Z,24.58
2019-06-27T03:31:38.660Z,24.56
2019-06-27T03:35:43.381Z,24.62
2019-06-27T03:39:47.880Z,24.72
2019-06-27T03:43:52.226Z,24.83
2019-06-27T03:47:56.717Z,24.94
2019-06-27T03:52:01.314Z,25.05
2019-06-27T03:56:05.865Z,25.14
2019-06-27T04:00:10.582Z,25.17
2019-06-27T04:04:14.916Z,25.19
2019-06-27T04:08:19.240Z,25.22
2019-06-27T04:12:24.138Z,25.23
2019-06-27T04:16:28.581Z,25.24
2019-06-27T04:20:33.113Z,25.33
2019-06-27T04:24:37.442Z,25.42
2019-06-27T04:28:41.828Z,25.50
2019-06-27T04:32:46.206Z,25.55
2019-06-27T04:36:50.647Z,25.61
2019-06-27T04:40:55.144Z,25.68
2019-06-27T04:44:59.511Z,25.79
2019-06-27T04:49:03.912Z,25.90
2019-06-27T04:53:08.323Z,26.01
2019-06-27T04:57:13.063Z,26.11
2019-06-27T05:01:17.530Z,26.28
2019-06-27T05:05:21.981Z,26.46
2019-06-27T05:09:26.993Z,26.65
2019-06-27T05:13:31.363Z,26.83
2019-06-27T05:17:35.950Z,27.02
2019-06-27T05:21:40.281Z,27.16
2019-06-27T05:25:44.640Z,27.34
2019-06-27T05:29:49.093Z,27.51
2019-06-27T05:33:53.404Z,27.66
2019-06-27T05:37:58.434Z,27.82
2019-06-27T05:42:02.743Z,27.98
2019-06-27T05:46:07.093Z,28.11
2019-06-27T05:50:11.520Z,28.26
2019-06-27T05:54:16.575Z,28.41
2019-06-27T05:58:21.006Z,28.57
2019-06-27T06:14:17.274Z,28.89
2019-06-27T06:18:21.605Z,28.92
2019-06-27T06:22:25.972Z,29.09
2019-06-27T06:26:30.317Z,29.27
2019-06-27T06:30:44.510Z,29.49
2019-06-27T06:34:40.669Z,29.68
2019-06-27T06:38:44.976Z,29.81
2019-06-27T06:42:49.338Z,29.92
2019-06-27T06:46:53.637Z,30.01
2019-06-27T06:50:58.222Z,30.08
2019-06-27T06:55:02.632Z,30.21
2019-06-27T06:59:07.531Z,30.36
2019-06-27T07:03:11.878Z,30.49
2019-06-27T07:07:16.202Z,30.58
2019-06-27T07:11:20.498Z,30.68
2019-06-27T07:15:24.835Z,30.73
2019-06-27T07:19:29.455Z,30.73
2019-06-27T07:23:34.318Z,30.83
2019-06-27T07:27:39.200Z,30.97
2019-06-27T07:31:43.583Z,31.05
2019-06-27T07:35:47.913Z,31.10
2019-06-27T07:39:52.458Z,31.09
2019-06-27T07:43:56.925Z,31.11
2019-06-27T07:48:01.529Z,31.15
2019-06-27T07:52:06.406Z,31.27
2019-06-27T07:56:12.170Z,31.37
2019-06-27T08:00:18.129Z,31.46
2019-06-27T08:04:23.063Z,31.55
2019-06-27T08:08:27.589Z,31.57
2019-06-27T08:12:31.892Z,31.67
2019-06-27T08:16:36.229Z,31.69
2019-06-27T08:20:40.562Z,31.71
2019-06-27T08:24:45.372Z,31.75
2019-06-27T08:28:49.674Z,31.90
2019-06-27T08:32:54.102Z,32.02
2019-06-27T08:36:58.492Z,32.14
2019-06-27T08:41:02.776Z,32.23
2019-06-27T08:45:08.014Z,32.20
2019-06-27T08:49:12.433Z,32.25
2019-06-27T08:53:16.993Z,32.31
2019-06-27T08:57:21.441Z,32.49
2019-06-27T09:01:25.856Z,32.64
2019-06-27T09:05:30.330Z,32.73
2019-06-27T09:09:34.694Z,32.78
2019-06-27T09:13:39.023Z,32.85
2019-06-27T09:17:43.621Z,32.87
2019-06-27T09:21:47.947Z,32.93
2019-06-27T09:25:52.302Z,33.03
2019-06-27T09:29:56.626Z,33.06
2019-06-27T09:34:04.048Z,32.98
2019-06-27T09:38:08.378Z,33.11
2019-06-27T09:42:12.711Z,33.32
2019-06-27T09:46:17.046Z,33.44
2019-06-27T09:50:22.432Z,33.49
2019-06-27T09:54:26.755Z,33.42
2019-06-27T09:58:31.110Z,33.27
2019-06-27T10:02:41.588Z,33.25
2019-06-27T10:06:41.762Z,33.27
2019-06-27T10:10:46.094Z,33.21
2019-06-27T10:14:50.575Z,33.23
2019-06-27T10:18:56.350Z,33.34
2019-06-27T10:23:00.809Z,33.45
2019-06-27T10:27:05.473Z,33.40
2019-06-27T10:31:09.780Z,33.49
2019-06-27T10:35:14.308Z,33.68
2019-06-27T10:39:18.893Z,33.68
2019-06-27T10:43:23.208Z,33.75
2019-06-27T10:47:28.267Z,33.74
2019-06-27T10:51:32.562Z,33.81
2019-06-27T10:55:36.946Z,33.94
2019-06-27T10:59:41.295Z,34.11
2019-06-27T11:03:47.115Z,34.27
2019-06-27T11:07:51.413Z,34.40
2019-06-27T11:11:56.023Z,34.37
2019-06-27T11:16:00.400Z,34.35
2019-06-27T11:20:06.119Z,34.39
2019-06-27T11:24:10.425Z,34.47
2019-06-27T11:28:14.917Z,34.52
2019-06-27T11:32:19.239Z,34.61
2019-06-27T11:36:23.567Z,34.66
2019-06-27T11:40:28.070Z,34.66
2019-06-27T11:44:32.643Z,34.50
2019-06-27T11:48:37.129Z,34.35
2019-06-27T11:52:41.432Z,34.41
2019-06-27T11:56:45.789Z,34.54
2019-06-27T12:00:50.084Z,34.68
2019-06-27T12:04:54.423Z,34.76
2019-06-27T12:08:58.854Z,34.62
2019-06-27T12:13:03.674Z,34.56
2019-06-27T12:17:08.010Z,34.69
2019-06-27T12:21:12.316Z,34.78
2019-06-27T12:25:17.327Z,34.79
2019-06-27T12:29:21.647Z,34.79
2019-06-27T12:58:48.974Z,34.00
2019-06-27T13:02:53.265Z,33.62
2019-06-27T13:06:57.765Z,33.44
2019-06-27T13:11:02.072Z,33.37
2019-06-27T13:15:07.825Z,33.42
2019-06-27T13:19:12.258Z,33.48
2019-06-27T13:23:16.553Z,33.48
2019-06-27T13:27:20.846Z,33.45
2019-06-27T13:31:25.636Z,33.45
2019-06-27T13:35:30.004Z,33.44
2019-06-27T13:39:34.685Z,33.48
2019-06-27T13:43:39.159Z,33.43
2019-06-27T13:47:43.767Z,33.36
2019-06-27T13:51:48.077Z,33.37
2019-06-27T13:55:52.609Z,33.29
2019-06-27T13:59:57.166Z,33.22
2019-06-27T14:04:01.485Z,33.18
2019-06-27T14:08:05.870Z,33.12
2019-06-27T14:12:10.518Z,33.12
2019-06-27T14:16:15.337Z,33.05
2019-06-27T14:20:19.832Z,33.06
2019-06-27T14:24:24.118Z,33.12
2019-06-27T14:28:35.620Z,33.12
2019-06-27T14:32:42.284Z,33.09
2019-06-27T14:36:48.140Z,33.03
2019-06-27T14:40:53.644Z,32.99
2019-06-27T14:44:59.204Z,32.95
2019-06-27T14:49:06.395Z,33.01
2019-06-27T14:53:11.026Z,33.06
2019-06-27T14:57:15.546Z,33.03
2019-06-27T15:01:20.102Z,33.00
2019-06-27T15:05:32.323Z,33.01
2019-06-27T15:09:30.526Z,33.00
2019-06-27T15:13:35.165Z,32.86
2019-06-27T15:17:39.455Z,32.79
2019-06-27T15:21:43.772Z,32.74
2019-06-27T15:25:48.080Z,32.67
2019-06-27T15:29:52.442Z,32.59
2019-06-27T15:33:56.804Z,32.56
2019-06-27T15:38:01.096Z,32.51
2019-06-27T15:42:05.649Z,32.48
2019-06-27T15:46:10.061Z,32.43
2019-06-27T15:50:14.667Z,32.38
2019-06-27T15:54:19.001Z,32.34
2019-06-27T15:58:23.335Z,32.28
2019-06-27T16:02:27.638Z,32.25
2019-06-27T16:06:31.953Z,32.19
2019-06-27T16:10:36.486Z,32.11
2019-06-27T16:14:41.002Z,32.02
2019-06-27T16:18:45.518Z,31.94
2019-06-27T16:22:49.820Z,31.85
2019-06-27T16:26:54.306Z,31.76
2019-06-27T16:30:58.638Z,31.68
2019-06-27T16:35:03.247Z,31.64
2019-06-27T16:39:07.759Z,31.55
2019-06-27T16:43:12.339Z,31.51
2019-06-27T16:47:16.760Z,31.44
2019-06-27T16:51:21.086Z,31.34
2019-06-27T16:55:25.623Z,31.27
2019-06-27T16:59:30.038Z,31.22
2019-06-27T17:03:34.393Z,31.14
2019-06-27T17:07:38.958Z,31.06
2019-06-27T17:11:43.237Z,31.00
2019-06-27T17:15:48.741Z,30.95
2019-06-27T17:19:53.030Z,30.88
2019-06-27T17:23:57.581Z,30.84
2019-06-27T17:28:01.956Z,30.78
2019-06-27T17:32:06.654Z,30.69
2019-06-27T17:36:10.964Z,30.62
2019-06-27T17:40:15.481Z,30.55
2019-06-27T17:44:20.274Z,30.47
2019-06-27T17:48:24.847Z,30.38
2019-06-27T17:52:31.420Z,30.33
2019-06-27T17:56:35.425Z,30.27
2019-06-27T18:00:39.767Z,30.21
2019-06-27T18:04:44.095Z,30.03
2019-06-27T18:08:48.477Z,29.91
2019-06-27T18:12:52.925Z,29.77
2019-06-27T18:16:57.316Z,29.64
2019-06-27T18:21:02.973Z,29.53
2019-06-27T18:25:07.463Z,29.48
2019-06-27T18:29:11.913Z,29.41
2019-06-27T18:33:16.289Z,29.35
2019-06-27T18:37:29.715Z,29.22
2019-06-27T18:41:26.829Z,29.14
2019-06-27T18:45:31.160Z,29.03
2019-06-27T18:49:35.511Z,28.89
2019-06-27T18:53:40.038Z,28.79
2019-06-27T18:57:44.395Z,28.70
2019-06-27T19:01:48.827Z,28.62
2019-06-27T19:05:53.385Z,28.57
2019-06-27T19:09:57.734Z,28.47
2019-06-27T19:14:02.146Z,28.37
2019-06-27T19:18:09.348Z,28.24
2019-06-27T19:22:33.499Z,28.10
2019-06-27T19:26:37.858Z,27.99
2019-06-27T19:30:42.490Z,27.91
2019-06-27T19:34:47.111Z,27.80
2019-06-27T19:38:51.844Z,27.75
2019-06-27T19:42:56.345Z,27.70
2019-06-27T19:47:01.759Z,27.69
2019-06-27T19:51:06.102Z,27.62
2019-06-27T19:55:10.845Z,27.54
2019-06-27T19:59:15.331Z,27.52
2019-06-27T20:03:19.751Z,27.44
2019-06-27T20:07:24.577Z,27.38
2019-06-27T20:11:29.241Z,27.30
2019-06-27T20:15:33.725Z,27.22
2019-06-27T20:19:38.063Z,27.16
2019-06-27T20:23:42.392Z,27.09
2019-06-27T20:27:46.826Z,27.02
2019-06-27T20:31:51.352Z,26.96
2019-06-27T20:35:55.773Z,26.90
2019-06-27T20:40:00.210Z,26.87
2019-06-27T20:44:04.498Z,26.82
2019-06-27T20:48:08.859Z,26.80
2019-06-27T20:52:13.350Z,26.76
2019-06-27T20:56:18.044Z,26.66
2019-06-27T21:00:22.698Z,26.57
2019-06-27T21:04:27.494Z,26.42
2019-06-27T21:08:31.975Z,26.27
2019-06-27T21:12:36.733Z,26.19
2019-06-27T21:16:41.438Z,26.14
2019-06-27T21:20:45.921Z,26.06
2019-06-27T21:24:50.346Z,26.00
2019-06-27T21:28:55.138Z,25.91
2019-06-27T21:32:59.466Z,25.84
2019-06-27T21:37:04.018Z,25.78
2019-06-27T21:41:08.559Z,25.71
2019-06-27T21:45:13.336Z,25.62
2019-06-27T21:49:17.794Z,25.53
2019-06-27T21:53:22.246Z,25.46
2019-06-27T21:57:28.080Z,25.39
2019-06-27T22:01:32.931Z,25.32
2019-06-27T22:05:37.686Z,25.27
2019-06-27T22:10:30.081Z,25.21
2019-06-27T22:14:29.995Z,25.15
2019-06-27T22:18:34.779Z,25.09
2019-06-27T22:22:39.346Z,25.03
2019-06-27T22:26:43.898Z,24.97
2019-06-27T22:30:48.459Z,24.92
2019-06-27T22:34:52.743Z,24.86
2019-06-27T22:39:15.011Z,24.84
2019-06-27T22:43:37.490Z,24.81
2019-06-27T22:47:59.499Z,24.76
2019-06-27T22:52:29.835Z,24.74
2019-06-27T22:56:34.657Z,24.66
2019-06-27T23:00:39.167Z,24.57
2019-06-27T23:04:43.738Z,24.55
2019-06-27T23:08:48.306Z,24.53
2019-06-27T23:12:52.780Z,24.51
2019-06-27T23:16:57.318Z,24.44
2019-06-27T23:21:01.619Z,24.39
2019-06-27T23:25:06.484Z,24.37
2019-06-27T23:29:10.898Z,24.30
2019-06-27T23:33:15.666Z,24.24
2019-06-27T23:37:19.991Z,24.17
2019-06-27T23:41:24.564Z,24.14
2019-06-27T23:45:29.045Z,24.06
2019-06-27T23:49:33.619Z,24.01
2019-06-27T23:53:38.050Z,23.95
2019-06-27T23:57:42.679Z,23.90
